Time;durP1;ratioP1;P1;durP2;ratioP2;P2;SDS_P1;SDS_P2;PMS_P1;PMS_P2;Temp;Humidity;BMP_temperature;BMP_pressure;BME280_temperature;BME280_humidity;BME280_pressure;Samples;Min_cycle;Max_cycle;Signal;HPM_P1;HPM_P2
2021/10/17 00:02:14;;;;;;;;;30.75;25.75;;;;;;;;5034222;28;45362;-69
2021/10/17 00:04:39;;;;;;;;;31.50;28.75;;;;;;;;5034960;28;45300;-68
2021/10/17 00:07:07;;;;;;;;;44.25;33.50;;;;;;;;5035426;28;45573;-69
2021/10/17 00:09:32;;;;;;;;;27.25;24.00;;;;;;;;5034858;28;47245;-68
2021/10/17 00:11:57;;;;;;;;;29.50;24.75;;;;;;;;5034132;28;45335;-70
2021/10/17 00:14:23;;;;;;;;;22.75;22.00;;;;;;;;5035644;28;45389;-67
2021/10/17 00:16:48;;;;;;;;;26.50;21.75;;;;;;;;5035991;28;45155;-69
2021/10/17 00:19:13;;;;;;;;;21.75;21.00;;;;;;;;5035108;28;46451;-68
2021/10/17 00:21:38;;;;;;;;;22.50;20.25;;;;;;;;5033823;28;45410;-68
2021/10/17 00:24:03;;;;;;;;;20.00;18.75;;;;;;;;5035157;28;45462;-68
2021/10/17 00:26:29;;;;;;;;;27.00;23.00;;;;;;;;5034058;28;45296;-66
2021/10/17 00:28:54;;;;;;;;;25.50;23.25;;;;;;;;5034435;28;46551;-66
2021/10/17 00:31:19;;;;;;;;;14.25;14.00;;;;;;;;5035149;28;45394;-66
2021/10/17 00:33:44;;;;;;;;;28.75;23.75;;;;;;;;5034810;28;45381;-67
2021/10/17 00:36:10;;;;;;;;;21.00;18.50;;;;;;;;5033865;28;45602;-68
2021/10/17 00:38:35;;;;;;;;;20.00;18.50;;;;;;;;5034434;28;46063;-66
2021/10/17 00:41:00;;;;;;;;;18.75;17.25;;;;;;;;5034489;28;45504;-65
2021/10/17 00:43:25;;;;;;;;;22.00;19.50;;;;;;;;5037940;28;45366;-66
2021/10/17 00:45:51;;;;;;;;;21.50;19.00;;;;;;;;5039131;28;45543;-67
2021/10/17 00:48:16;;;;;;;;;22.50;17.25;;;;;;;;5036875;28;47296;-65
2021/10/17 00:50:41;;;;;;;;;16.00;16.00;;;;;;;;5038280;28;45381;-65
2021/10/17 00:53:06;;;;;;;;;22.75;20.00;;;;;;;;5038882;28;45475;-65
2021/10/17 00:55:32;;;;;;;;;19.75;17.50;;;;;;;;5039194;28;45311;-68
2021/10/17 00:58:00;;;;;;;;;18.75;16.00;;;;;;;;5037859;28;45502;-68
2021/10/17 01:00:26;;;;;;;;;21.50;19.25;;;;;;;;5037598;28;45456;-68
2021/10/17 01:02:51;;;;;;;;;18.00;16.25;;;;;;;;5038061;28;45286;-66
2021/10/17 01:05:17;;;;;;;;;21.50;19.25;;;;;;;;5037948;28;45272;-66
2021/10/17 01:07:43;;;;;;;;;27.50;25.75;;;;;;;;5037517;28;46221;-68
2021/10/17 01:10:08;;;;;;;;;38.00;30.75;;;;;;;;5037371;28;45463;-68
2021/10/17 01:12:33;;;;;;;;;24.25;21.25;;;;;;;;5037613;28;45511;-67
2021/10/17 01:14:59;;;;;;;;;30.50;24.25;;;;;;;;5037907;28;45315;-69
2021/10/17 01:17:24;;;;;;;;;32.75;27.75;;;;;;;;5037559;28;46142;-68
2021/10/17 01:19:49;;;;;;;;;22.75;19.75;;;;;;;;5039216;28;45291;-66
2021/10/17 01:22:18;;;;;;;;;24.25;23.00;;;;;;;;5038832;28;45256;-65
2021/10/17 01:24:43;;;;;;;;;20.25;18.00;;;;;;;;5039407;28;45393;-68
2021/10/17 01:27:09;;;;;;;;;23.75;19.25;;;;;;;;5037079;28;45235;-67
2021/10/17 01:29:34;;;;;;;;;21.50;19.75;;;;;;;;5037020;28;45278;-67
2021/10/17 01:32:00;;;;;;;;;26.25;21.75;;;;;;;;5037459;28;45178;-70
2021/10/17 01:34:26;;;;;;;;;24.00;21.25;;;;;;;;5037676;28;45754;-68
2021/10/17 01:36:51;;;;;;;;;20.75;17.50;;;;;;;;5037778;28;46475;-71
2021/10/17 01:39:18;;;;;;;;;25.25;19.00;;;;;;;;5037543;28;45323;-69
2021/10/17 01:41:43;;;;;;;;;20.50;16.75;;;;;;;;5037468;28;45246;-68
2021/10/17 01:44:10;;;;;;;;;19.50;19.50;;;;;;;;5037259;28;45565;-69
2021/10/17 01:46:36;;;;;;;;;22.00;19.75;;;;;;;;5036922;28;45470;-68
2021/10/17 01:49:04;;;;;;;;;21.25;16.75;;;;;;;;5037113;28;45507;-67
2021/10/17 01:51:29;;;;;;;;;22.50;19.25;;;;;;;;5036598;28;45558;-68
2021/10/17 01:53:55;;;;;;;;;25.50;20.50;;;;;;;;5037716;28;45637;-71
2021/10/17 01:56:20;;;;;;;;;27.75;21.00;;;;;;;;5036717;28;45516;-68
2021/10/17 01:58:46;;;;;;;;;23.75;20.50;;;;;;;;5036982;28;45368;-68
2021/10/17 02:01:11;;;;;;;;;24.75;22.00;;;;;;;;5035924;28;45308;-66
2021/10/17 02:03:36;;;;;;;;;24.25;19.00;;;;;;;;5037486;28;45406;-69
2021/10/17 02:06:02;;;;;;;;;49.25;40.00;;;;;;;;5037062;28;46177;-69
2021/10/17 02:08:28;;;;;;;;;23.25;19.00;;;;;;;;5037473;28;45877;-66
2021/10/17 02:10:53;;;;;;;;;26.25;21.50;;;;;;;;5037532;28;45296;-67
2021/10/17 02:13:18;;;;;;;;;23.75;21.25;;;;;;;;5037362;28;45162;-69
2021/10/17 02:15:43;;;;;;;;;28.00;25.00;;;;;;;;5036656;28;45259;-67
2021/10/17 02:18:08;;;;;;;;;23.75;22.25;;;;;;;;5036872;28;45456;-72
2021/10/17 02:20:34;;;;;;;;;33.75;27.25;;;;;;;;5037327;28;45331;-71
2021/10/17 02:23:00;;;;;;;;;34.50;27.25;;;;;;;;5037126;28;45461;-71
2021/10/17 02:25:26;;;;;;;;;24.25;23.00;;;;;;;;5036992;28;45379;-71
2021/10/17 02:27:51;;;;;;;;;29.00;23.50;;;;;;;;5035567;28;45342;-71
2021/10/17 02:30:16;;;;;;;;;30.50;27.00;;;;;;;;5035503;28;45380;-71
2021/10/17 02:32:41;;;;;;;;;23.50;21.75;;;;;;;;5037016;28;45344;-70
2021/10/17 02:35:07;;;;;;;;;26.25;21.75;;;;;;;;5035023;28;48001;-72
2021/10/17 02:37:32;;;;;;;;;22.25;22.25;;;;;;;;5036570;28;45350;-71
2021/10/17 02:39:57;;;;;;;;;28.75;22.00;;;;;;;;5036889;28;45385;-71
2021/10/17 02:42:23;;;;;;;;;26.75;24.00;;;;;;;;5035567;28;45353;-71
2021/10/17 02:44:48;;;;;;;;;19.25;15.75;;;;;;;;5036472;28;45371;-70
2021/10/17 02:47:13;;;;;;;;;25.50;22.75;;;;;;;;5035210;28;45980;-73
2021/10/17 02:49:38;;;;;;;;;22.75;22.00;;;;;;;;5036525;28;45336;-70
2021/10/17 02:52:04;;;;;;;;;23.00;21.25;;;;;;;;5034882;28;45240;-70
2021/10/17 02:54:29;;;;;;;;;28.50;25.25;;;;;;;;5036355;28;45338;-71
2021/10/17 02:56:54;;;;;;;;;26.50;22.00;;;;;;;;5036214;28;45314;-70
2021/10/17 02:59:19;;;;;;;;;25.00;20.50;;;;;;;;5035976;28;45443;-70
2021/10/17 03:01:44;;;;;;;;;27.75;24.75;;;;;;;;5035390;28;45537;-70
2021/10/17 03:04:10;;;;;;;;;22.75;19.25;;;;;;;;5035446;28;46345;-72
2021/10/17 03:06:35;;;;;;;;;34.00;27.50;;;;;;;;5036709;28;45232;-71
2021/10/17 03:09:00;;;;;;;;;41.00;32.50;;;;;;;;5037001;28;45248;-72
2021/10/17 03:11:26;;;;;;;;;27.50;23.50;;;;;;;;5036352;28;45639;-72
2021/10/17 03:13:51;;;;;;;;;32.25;30.25;;;;;;;;5035864;28;45244;-69
2021/10/17 03:16:16;;;;;;;;;28.25;24.75;;;;;;;;5035429;28;45309;-73
2021/10/17 03:18:41;;;;;;;;;27.00;25.25;;;;;;;;5035965;28;45461;-72
2021/10/17 03:21:06;;;;;;;;;34.00;26.50;;;;;;;;5034555;28;45374;-71
2021/10/17 03:23:34;;;;;;;;;33.50;25.50;;;;;;;;5035519;28;45310;-69
2021/10/17 03:25:59;;;;;;;;;28.75;24.75;;;;;;;;5035864;28;45293;-70
2021/10/17 03:28:24;;;;;;;;;41.00;33.00;;;;;;;;5035720;28;45493;-69
2021/10/17 03:30:54;;;;;;;;;31.50;27.75;;;;;;;;5036017;28;45321;-71
2021/10/17 03:33:20;;;;;;;;;28.75;23.75;;;;;;;;5035366;28;46407;-70
2021/10/17 03:35:45;;;;;;;;;13.75;10.00;;;;;;;;5034012;28;45405;-72
2021/10/17 03:38:10;;;;;;;;;32.50;27.75;;;;;;;;5034185;28;45303;-70
2021/10/17 03:40:36;;;;;;;;;14.75;12.00;;;;;;;;5034288;28;45269;-71
2021/10/17 03:43:01;;;;;;;;;38.50;30.00;;;;;;;;5035318;28;45335;-71
2021/10/17 03:45:29;;;;;;;;;41.00;33.75;;;;;;;;5035357;28;45208;-71
2021/10/17 03:47:54;;;;;;;;;36.75;33.00;;;;;;;;5035617;28;45428;-72
2021/10/17 03:50:19;;;;;;;;;37.50;32.75;;;;;;;;5035994;28;45405;-72
2021/10/17 03:52:44;;;;;;;;;42.00;33.00;;;;;;;;5035417;28;45538;-72
2021/10/17 03:55:10;;;;;;;;;35.50;29.50;;;;;;;;5035490;28;45356;-71
2021/10/17 03:57:35;;;;;;;;;40.75;33.75;;;;;;;;5035807;28;45287;-74
2021/10/17 04:00:00;;;;;;;;;40.00;31.50;;;;;;;;5036220;28;45480;-70
2021/10/17 04:02:25;;;;;;;;;37.00;32.75;;;;;;;;5035314;28;45314;-75
2021/10/17 04:04:50;;;;;;;;;33.50;29.75;;;;;;;;5034046;28;45505;-72
2021/10/17 04:07:16;;;;;;;;;34.50;29.25;;;;;;;;5035403;28;45331;-74
2021/10/17 04:09:41;;;;;;;;;30.75;27.50;;;;;;;;5035626;28;45552;-72
2021/10/17 04:12:06;;;;;;;;;30.25;26.50;;;;;;;;5033714;28;46755;-72
2021/10/17 04:14:31;;;;;;;;;27.00;22.75;;;;;;;;5035182;28;45366;-71
2021/10/17 04:16:57;;;;;;;;;37.75;30.50;;;;;;;;5035266;28;45357;-72
2021/10/17 04:19:22;;;;;;;;;24.00;21.50;;;;;;;;5035341;28;45521;-72
2021/10/17 04:21:47;;;;;;;;;28.00;24.25;;;;;;;;5035097;28;46554;-70
2021/10/17 04:24:12;;;;;;;;;19.50;19.00;;;;;;;;5035191;28;45606;-70
2021/10/17 04:26:38;;;;;;;;;24.00;20.50;;;;;;;;5035312;28;45468;-70
2021/10/17 04:29:03;;;;;;;;;27.00;22.25;;;;;;;;5035596;28;45389;-70
2021/10/17 04:31:28;;;;;;;;;25.75;22.00;;;;;;;;5034959;28;45448;-70
2021/10/17 04:33:53;;;;;;;;;26.25;20.00;;;;;;;;5034715;28;45426;-70
2021/10/17 04:36:19;;;;;;;;;18.25;18.25;;;;;;;;5034878;28;45235;-70
2021/10/17 04:38:44;;;;;;;;;29.00;21.50;;;;;;;;5035082;28;45592;-71
2021/10/17 04:41:09;;;;;;;;;25.75;21.00;;;;;;;;5033244;28;45950;-71
2021/10/17 04:43:35;;;;;;;;;21.50;18.75;;;;;;;;5033526;28;45316;-70
2021/10/17 04:46:01;;;;;;;;;27.50;20.75;;;;;;;;5034949;28;45238;-70
2021/10/17 04:48:26;;;;;;;;;23.00;21.75;;;;;;;;5035232;28;45583;-70
2021/10/17 04:50:51;;;;;;;;;24.50;22.50;;;;;;;;5033126;28;47329;-69
2021/10/17 04:53:17;;;;;;;;;25.00;22.00;;;;;;;;5035037;28;45401;-71
2021/10/17 04:55:42;;;;;;;;;24.00;23.00;;;;;;;;5034953;28;45366;-70
2021/10/17 04:58:07;;;;;;;;;24.50;22.50;;;;;;;;5034951;28;45213;-71
2021/10/17 05:00:32;;;;;;;;;31.50;28.00;;;;;;;;5034841;28;46196;-71
2021/10/17 05:02:59;;;;;;;;;30.75;26.50;;;;;;;;5034811;28;45241;-74
2021/10/17 05:05:24;;;;;;;;;33.50;24.25;;;;;;;;5034751;28;45398;-72
2021/10/17 05:07:49;;;;;;;;;36.50;31.00;;;;;;;;5034708;28;45390;-73
2021/10/17 05:10:15;;;;;;;;;32.50;25.75;;;;;;;;5034336;28;45561;-73
2021/10/17 05:12:40;;;;;;;;;30.25;27.50;;;;;;;;5034185;28;45381;-73
2021/10/17 05:15:05;;;;;;;;;34.00;28.25;;;;;;;;5034542;28;45334;-72
2021/10/17 05:17:30;;;;;;;;;32.50;28.75;;;;;;;;5033158;28;45483;-71
2021/10/17 05:19:55;;;;;;;;;33.50;28.00;;;;;;;;5034387;28;46581;-71
2021/10/17 05:22:21;;;;;;;;;31.50;28.75;;;;;;;;5032783;28;45379;-72
2021/10/17 05:24:46;;;;;;;;;36.25;27.25;;;;;;;;5034410;28;45318;-73
2021/10/17 05:27:11;;;;;;;;;33.25;27.25;;;;;;;;5034760;28;45610;-71
2021/10/17 05:29:37;;;;;;;;;31.50;27.25;;;;;;;;5036630;28;47329;-71
2021/10/17 05:32:02;;;;;;;;;33.00;25.75;;;;;;;;5036484;28;45653;-72
2021/10/17 05:34:27;;;;;;;;;32.75;25.50;;;;;;;;5037739;28;45366;-71
2021/10/17 05:36:52;;;;;;;;;30.00;25.50;;;;;;;;5037841;28;45635;-71
2021/10/17 05:39:18;;;;;;;;;24.50;23.75;;;;;;;;5037231;28;45430;-71
2021/10/17 05:41:43;;;;;;;;;32.50;27.00;;;;;;;;5037514;28;45327;-71
2021/10/17 05:44:08;;;;;;;;;25.00;24.75;;;;;;;;5037744;28;45512;-72
2021/10/17 05:46:34;;;;;;;;;30.50;25.50;;;;;;;;5038036;28;45677;-72
2021/10/17 05:49:00;;;;;;;;;27.75;25.25;;;;;;;;5037624;28;45406;-73
2021/10/17 05:51:25;;;;;;;;;22.00;19.75;;;;;;;;5037544;28;45228;-73
2021/10/17 05:53:50;;;;;;;;;29.00;26.00;;;;;;;;5037425;28;45377;-73
2021/10/17 05:56:15;;;;;;;;;29.00;27.75;;;;;;;;5037657;28;45610;-72
2021/10/17 05:58:40;;;;;;;;;23.25;19.75;;;;;;;;5037153;28;45331;-71
2021/10/17 06:01:06;;;;;;;;;27.00;25.50;;;;;;;;5037530;28;45214;-72
2021/10/17 06:03:31;;;;;;;;;31.25;23.50;;;;;;;;5037195;28;45289;-69
2021/10/17 06:06:01;;;;;;;;;29.50;25.75;;;;;;;;5037314;28;45655;-72
2021/10/17 06:08:26;;;;;;;;;24.50;24.25;;;;;;;;5035558;28;47997;-71
2021/10/17 06:10:52;;;;;;;;;29.75;26.50;;;;;;;;5037233;28;45402;-73
2021/10/17 06:13:18;;;;;;;;;28.00;26.00;;;;;;;;5035846;28;45347;-70
2021/10/17 06:15:43;;;;;;;;;31.00;26.75;;;;;;;;5037358;28;45658;-73
2021/10/17 06:18:08;;;;;;;;;25.75;23.50;;;;;;;;5037210;28;45281;-71
2021/10/17 06:20:33;;;;;;;;;31.50;25.75;;;;;;;;5036585;28;45429;-71
2021/10/17 06:22:58;;;;;;;;;27.25;21.75;;;;;;;;5036740;28;45310;-71
2021/10/17 06:25:24;;;;;;;;;27.75;25.00;;;;;;;;5037278;28;45587;-73
2021/10/17 06:27:49;;;;;;;;;30.25;24.00;;;;;;;;5036782;28;45442;-72
2021/10/17 06:30:15;;;;;;;;;25.00;23.50;;;;;;;;5037225;28;45460;-71
2021/10/17 06:32:40;;;;;;;;;31.50;26.25;;;;;;;;5036874;28;45438;-70
2021/10/17 06:35:06;;;;;;;;;31.25;28.00;;;;;;;;5035518;28;45280;-72
2021/10/17 06:37:31;;;;;;;;;35.75;28.75;;;;;;;;5036533;28;46386;-72
2021/10/17 06:39:56;;;;;;;;;24.00;22.50;;;;;;;;5036816;28;45513;-72
2021/10/17 06:42:22;;;;;;;;;26.50;25.00;;;;;;;;5036897;28;45331;-69
2021/10/17 06:44:48;;;;;;;;;28.75;25.50;;;;;;;;5036947;28;45272;-71
2021/10/17 06:47:13;;;;;;;;;27.50;24.50;;;;;;;;5036489;28;45350;-70
2021/10/17 06:49:38;;;;;;;;;35.00;25.25;;;;;;;;5035599;28;45383;-70
2021/10/17 06:52:03;;;;;;;;;27.00;24.75;;;;;;;;5036719;28;45208;-70
2021/10/17 06:54:29;;;;;;;;;28.50;26.00;;;;;;;;5036894;28;45236;-70
2021/10/17 06:56:54;;;;;;;;;26.75;22.50;;;;;;;;5036246;28;45353;-73
2021/10/17 06:59:19;;;;;;;;;33.00;26.75;;;;;;;;5036534;28;45224;-70
2021/10/17 07:01:45;;;;;;;;;30.25;25.25;;;;;;;;5036370;28;45357;-71
2021/10/17 07:04:10;;;;;;;;;25.00;22.00;;;;;;;;5036675;28;45547;-70
2021/10/17 07:06:35;;;;;;;;;26.00;23.75;;;;;;;;5035963;28;46653;-70
2021/10/17 07:09:01;;;;;;;;;29.75;24.00;;;;;;;;5034672;28;45323;-70
2021/10/17 07:11:26;;;;;;;;;27.25;25.00;;;;;;;;5036070;28;45310;-72
2021/10/17 07:13:51;;;;;;;;;27.00;25.75;;;;;;;;5034971;28;45542;-70
2021/10/17 07:16:16;;;;;;;;;30.50;23.50;;;;;;;;5036058;28;46479;-71
2021/10/17 07:18:42;;;;;;;;;37.75;30.75;;;;;;;;5035930;28;45312;-73
2021/10/17 07:21:07;;;;;;;;;28.00;25.25;;;;;;;;5035447;28;45290;-70
2021/10/17 07:23:32;;;;;;;;;32.50;28.50;;;;;;;;5035954;28;45382;-71
2021/10/17 07:25:57;;;;;;;;;31.25;27.25;;;;;;;;5035989;28;45425;-71
2021/10/17 07:28:22;;;;;;;;;29.50;26.75;;;;;;;;5035789;28;45358;-72
2021/10/17 07:30:48;;;;;;;;;31.25;26.50;;;;;;;;5036051;28;45286;-73
2021/10/17 07:33:13;;;;;;;;;31.25;26.50;;;;;;;;5036379;28;45519;-72
2021/10/17 07:35:38;;;;;;;;;29.75;27.50;;;;;;;;5035848;28;46447;-74
2021/10/17 07:38:04;;;;;;;;;27.50;25.75;;;;;;;;5036151;28;45426;-72
2021/10/17 07:40:29;;;;;;;;;33.00;29.25;;;;;;;;5036620;28;45373;-73
2021/10/17 07:42:54;;;;;;;;;33.50;26.00;;;;;;;;5036383;28;45720;-73
2021/10/17 07:45:19;;;;;;;;;45.75;38.50;;;;;;;;5036024;28;45373;-73
2021/10/17 07:47:44;;;;;;;;;30.25;26.75;;;;;;;;5034910;28;45907;-71
2021/10/17 07:50:10;;;;;;;;;27.25;25.25;;;;;;;;5034101;28;45493;-73
2021/10/17 07:52:36;;;;;;;;;27.00;25.00;;;;;;;;5035932;28;45610;-74
2021/10/17 07:55:02;;;;;;;;;31.00;26.00;;;;;;;;5035298;28;46334;-70
2021/10/17 07:57:28;;;;;;;;;24.25;23.75;;;;;;;;5035454;28;45257;-72
2021/10/17 07:59:53;;;;;;;;;34.75;27.00;;;;;;;;5035276;28;45401;-71
2021/10/17 08:02:18;;;;;;;;;28.00;25.50;;;;;;;;5035341;28;45581;-72
2021/10/17 08:04:48;;;;;;;;;32.25;28.75;;;;;;;;5034131;28;46952;-73
2021/10/17 08:07:14;;;;;;;;;26.25;24.75;;;;;;;;5035181;28;45413;-70
2021/10/17 08:09:39;;;;;;;;;30.00;24.00;;;;;;;;5035132;28;45396;-72
2021/10/17 08:12:05;;;;;;;;;35.00;29.00;;;;;;;;5035636;28;45554;-73
2021/10/17 08:14:30;;;;;;;;;33.00;27.50;;;;;;;;5035281;28;46273;-72
2021/10/17 08:16:55;;;;;;;;;26.00;22.00;;;;;;;;5035336;28;45287;-72
2021/10/17 08:19:20;;;;;;;;;36.50;28.00;;;;;;;;5035143;28;45367;-71
2021/10/17 08:21:46;;;;;;;;;26.50;25.00;;;;;;;;5035218;28;45604;-72
2021/10/17 08:24:11;;;;;;;;;27.50;24.75;;;;;;;;5034413;28;45299;-72
2021/10/17 08:26:37;;;;;;;;;29.75;26.50;;;;;;;;5033609;28;45369;-70
2021/10/17 08:29:02;;;;;;;;;40.25;29.25;;;;;;;;5035496;28;45247;-71
2021/10/17 08:31:27;;;;;;;;;30.00;25.00;;;;;;;;5033833;28;45582;-70
2021/10/17 08:33:52;;;;;;;;;31.25;24.75;;;;;;;;5034887;28;45335;-67
2021/10/17 08:36:17;;;;;;;;;28.75;22.00;;;;;;;;5034725;28;45494;-69
2021/10/17 08:38:43;;;;;;;;;28.75;26.00;;;;;;;;5035148;28;45232;-68
2021/10/17 08:41:08;;;;;;;;;26.50;24.75;;;;;;;;5034982;28;45547;-70
2021/10/17 08:43:33;;;;;;;;;28.75;27.00;;;;;;;;5034036;28;46458;-70
2021/10/17 08:45:59;;;;;;;;;28.75;27.50;;;;;;;;5033043;28;45575;-70
2021/10/17 08:48:29;;;;;;;;;26.25;23.00;;;;;;;;5034302;28;45613;-76
2021/10/17 08:50:55;;;;;;;;;29.50;27.75;;;;;;;;5034515;28;45204;-70
2021/10/17 08:53:20;;;;;;;;;33.75;29.50;;;;;;;;5034363;28;45468;-70
2021/10/17 08:55:46;;;;;;;;;26.00;25.00;;;;;;;;5017122;28;45441;-71
2021/10/17 08:58:11;;;;;;;;;29.50;28.75;;;;;;;;5034781;28;45217;-68
2021/10/17 09:00:36;;;;;;;;;34.75;28.50;;;;;;;;5035417;28;45629;-74
2021/10/17 09:03:02;;;;;;;;;28.50;28.25;;;;;;;;5037666;28;46182;-80
2021/10/17 09:05:41;;;;;;;;;29.25;25.00;;;;;;;;5038501;28;45424;-77
2021/10/17 09:08:07;;;;;;;;;29.75;29.00;;;;;;;;5039901;28;45334;-76
2021/10/17 09:10:33;;;;;;;;;26.50;26.00;;;;;;;;5038157;28;45662;-76
2021/10/17 09:13:06;;;;;;;;;31.25;28.00;;;;;;;;5037687;28;45514;-77
2021/10/17 09:15:31;;;;;;;;;24.75;23.25;;;;;;;;5038294;28;45474;-72
2021/10/17 09:18:02;;;;;;;;;27.00;23.25;;;;;;;;5038087;28;45436;-75
2021/10/17 09:20:28;;;;;;;;;23.75;22.75;;;;;;;;5038302;28;45269;-72
2021/10/17 09:22:53;;;;;;;;;28.75;24.00;;;;;;;;5037207;28;46465;-71
2021/10/17 09:25:34;;;;;;;;;30.75;28.75;;;;;;;;5038153;28;45238;-70
2021/10/17 09:28:00;;;;;;;;;27.75;25.25;;;;;;;;5037575;28;45260;-68
2021/10/17 09:30:25;;;;;;;;;27.25;24.75;;;;;;;;5037762;28;45232;-72
2021/10/17 09:32:51;;;;;;;;;25.00;24.00;;;;;;;;5037377;28;45444;-72
2021/10/17 09:35:16;;;;;;;;;26.25;24.00;;;;;;;;5036499;28;45341;-73
2021/10/17 09:37:42;;;;;;;;;27.50;22.50;;;;;;;;5037518;28;45289;-72
2021/10/17 09:40:11;;;;;;;;;27.75;25.25;;;;;;;;5037681;28;45228;-74
2021/10/17 09:42:39;;;;;;;;;27.75;24.50;;;;;;;;5037102;28;45447;-73
2021/10/17 09:45:18;;;;;;;;;30.75;25.75;;;;;;;;5037736;28;45486;-74
2021/10/17 09:47:43;;;;;;;;;19.00;16.50;;;;;;;;5037460;28;45402;-71
2021/10/17 09:50:15;;;;;;;;;22.75;20.75;;;;;;;;5036188;28;45252;-72
2021/10/17 09:52:40;;;;;;;;;25.25;19.50;;;;;;;;5035750;28;47390;-69
2021/10/17 09:55:07;;;;;;;;;21.00;19.25;;;;;;;;5037022;28;45305;-68
2021/10/17 09:57:32;;;;;;;;;23.75;21.75;;;;;;;;5036960;28;45232;-68
2021/10/17 09:59:57;;;;;;;;;28.75;27.00;;;;;;;;5036981;28;45280;-68
2021/10/17 10:02:24;;;;;;;;;21.25;20.00;;;;;;;;5036699;28;46375;-68
2021/10/17 10:04:50;;;;;;;;;23.50;20.50;;;;;;;;5036104;28;45494;-70
2021/10/17 10:07:16;;;;;;;;;26.25;22.50;;;;;;;;5036075;28;45256;-69
2021/10/17 10:09:46;;;;;;;;;20.25;17.75;;;;;;;;5036234;28;45818;-69
2021/10/17 10:12:11;;;;;;;;;24.50;19.00;;;;;;;;5036746;28;46674;-67
2021/10/17 10:14:38;;;;;;;;;21.00;19.00;;;;;;;;5036407;28;45407;-69
2021/10/17 10:17:04;;;;;;;;;21.75;21.00;;;;;;;;5036260;28;45405;-67
2021/10/17 10:19:30;;;;;;;;;25.25;22.25;;;;;;;;5035346;28;45230;-69
2021/10/17 10:21:55;;;;;;;;;20.00;19.50;;;;;;;;5036244;28;45428;-68
2021/10/17 10:24:21;;;;;;;;;23.25;21.50;;;;;;;;5036554;28;45338;-68
2021/10/17 10:26:52;;;;;;;;;20.00;19.25;;;;;;;;5036226;28;45752;-69
2021/10/17 10:29:25;;;;;;;;;15.75;13.75;;;;;;;;5036321;28;45591;-67
2021/10/17 10:31:51;;;;;;;;;15.75;15.25;;;;;;;;5036088;28;45378;-70
2021/10/17 10:34:22;;;;;;;;;16.50;16.25;;;;;;;;5035776;28;45394;-67
2021/10/17 10:36:51;;;;;;;;;14.50;14.50;;;;;;;;5034749;28;45424;-71
2021/10/17 10:39:18;;;;;;;;;19.50;16.25;;;;;;;;5036436;28;45372;-75
2021/10/17 10:41:46;;;;;;;;;17.00;15.00;;;;;;;;5036191;28;45256;-72
2021/10/17 10:44:15;;;;;;;;;15.50;15.50;;;;;;;;5035764;28;45395;-73
2021/10/17 10:46:41;;;;;;;;;13.50;12.75;;;;;;;;5036237;28;45285;-72
2021/10/17 10:49:07;;;;;;;;;15.00;14.00;;;;;;;;5036260;28;45454;-71
2021/10/17 10:51:42;;;;;;;;;10.00;10.00;;;;;;;;5036458;28;45467;-67
2021/10/17 10:54:27;;;;;;;;;10.75;10.75;;;;;;;;5036577;28;45367;-68
2021/10/17 10:56:55;;;;;;;;;15.25;12.00;;;;;;;;5037292;28;45357;-66
2021/10/17 10:59:24;;;;;;;;;11.00;11.00;;;;;;;;5036494;28;45414;-67
2021/10/17 11:01:58;;;;;;;;;14.00;13.50;;;;;;;;5037472;28;45560;-69
2021/10/17 11:04:42;;;;;;;;;16.25;12.25;;;;;;;;5036279;28;45302;-69
2021/10/17 11:07:20;;;;;;;;;14.00;13.25;;;;;;;;5037920;28;45331;-76
2021/10/17 11:09:49;;;;;;;;;15.25;15.00;;;;;;;;5040514;28;45527;-71
2021/10/17 11:12:33;;;;;;;;;11.75;11.75;;;;;;;;5039422;28;45466;-72
2021/10/17 11:15:00;;;;;;;;;18.00;15.75;;;;;;;;5037311;28;45611;-69
2021/10/17 11:17:25;;;;;;;;;14.75;13.00;;;;;;;;5036610;28;45468;-74
2021/10/17 11:19:51;;;;;;;;;18.50;16.00;;;;;;;;5037002;28;45418;-72
2021/10/17 11:22:19;;;;;;;;;15.25;14.75;;;;;;;;5035198;28;47405;-69
2021/10/17 11:24:45;;;;;;;;;18.75;16.00;;;;;;;;5035309;28;45335;-71
2021/10/17 11:27:11;;;;;;;;;22.25;14.25;;;;;;;;5036055;28;45179;-71
2021/10/17 11:29:38;;;;;;;;;15.50;14.25;;;;;;;;5036099;28;45258;-73
2021/10/17 11:32:07;;;;;;;;;19.50;17.75;;;;;;;;5035948;28;46326;-74
2021/10/17 11:34:33;;;;;;;;;14.00;12.25;;;;;;;;5036274;28;45324;-71
2021/10/17 11:37:18;;;;;;;;;27.00;22.25;;;;;;;;5034801;28;45364;-77
2021/10/17 11:39:56;;;;;;;;;13.00;11.25;;;;;;;;5035784;28;45646;-68
2021/10/17 11:42:25;;;;;;;;;26.50;24.75;;;;;;;;5034589;28;47334;-71
2021/10/17 11:44:51;;;;;;;;;23.50;21.50;;;;;;;;5035812;28;45373;-76
2021/10/17 11:47:17;;;;;;;;;17.00;16.25;;;;;;;;5036067;28;45446;-74
2021/10/17 11:49:43;;;;;;;;;15.25;13.00;;;;;;;;5036234;28;45587;-73
2021/10/17 11:52:11;;;;;;;;;15.75;13.75;;;;;;;;5035563;28;45371;-74
2021/10/17 11:54:48;;;;;;;;;13.50;13.50;;;;;;;;5036461;28;45243;-72
2021/10/17 11:57:30;;;;;;;;;11.50;11.50;;;;;;;;5034323;28;45312;-70
2021/10/17 11:59:56;;;;;;;;;12.50;10.75;;;;;;;;5036149;28;45282;-73
2021/10/17 12:02:37;;;;;;;;;13.00;11.00;;;;;;;;5034678;28;48071;-75
2021/10/17 12:05:03;;;;;;;;;14.00;13.00;;;;;;;;5035401;28;45401;-74
2021/10/17 12:07:28;;;;;;;;;13.50;13.50;;;;;;;;5034631;28;45458;-76
2021/10/17 12:09:54;;;;;;;;;15.75;13.50;;;;;;;;5034519;28;45402;-72
2021/10/17 12:12:23;;;;;;;;;13.00;13.00;;;;;;;;5035789;28;46343;-74
2021/10/17 12:15:00;;;;;;;;;16.25;13.25;;;;;;;;5034074;28;45838;-70
2021/10/17 12:17:26;;;;;;;;;14.75;13.50;;;;;;;;5034481;28;45396;-69
2021/10/17 12:20:02;;;;;;;;;14.25;13.00;;;;;;;;5036039;28;45620;-74
2021/10/17 12:22:27;;;;;;;;;19.00;17.50;;;;;;;;5035085;28;46387;-71
2021/10/17 12:24:56;;;;;;;;;22.75;19.00;;;;;;;;5034255;28;45307;-70
2021/10/17 12:27:34;;;;;;;;;16.50;15.50;;;;;;;;5035003;28;45260;-69
2021/10/17 12:30:10;;;;;;;;;15.25;14.25;;;;;;;;5035260;28;45304;-68
2021/10/17 12:32:41;;;;;;;;;15.25;13.00;;;;;;;;5035807;28;46034;-69
2021/10/17 12:35:18;;;;;;;;;11.25;11.25;;;;;;;;5036508;28;45200;-65
2021/10/17 12:37:43;;;;;;;;;15.50;13.75;;;;;;;;5039893;28;45234;-69
2021/10/17 12:40:09;;;;;;;;;14.25;13.75;;;;;;;;5040557;28;45200;-70
2021/10/17 12:42:49;;;;;;;;;13.50;10.25;;;;;;;;5037524;28;47153;-67
2021/10/17 12:45:15;;;;;;;;;12.50;11.50;;;;;;;;5039176;28;45461;-70
2021/10/17 12:47:51;;;;;;;;;16.00;13.00;;;;;;;;5038498;28;45495;-71
2021/10/17 12:50:17;;;;;;;;;13.00;12.75;;;;;;;;5037662;28;45296;-68
2021/10/17 12:52:52;;;;;;;;;10.50;10.50;;;;;;;;5038312;28;46578;-70
2021/10/17 12:55:18;;;;;;;;;9.50;9.00;;;;;;;;5037997;28;45336;-69
2021/10/17 12:57:46;;;;;;;;;11.25;8.75;;;;;;;;5038471;28;45221;-70
2021/10/17 13:00:13;;;;;;;;;7.50;7.00;;;;;;;;5039143;28;45446;-76
2021/10/17 13:02:39;;;;;;;;;6.50;6.50;;;;;;;;5039722;28;46382;-74
2021/10/17 13:05:13;;;;;;;;;6.75;6.75;;;;;;;;5038627;28;45421;-74
2021/10/17 13:07:38;;;;;;;;;8.50;5.75;;;;;;;;5038594;28;45384;-75
2021/10/17 13:10:07;;;;;;;;;36.00;33.25;;;;;;;;5038612;28;45374;-71
2021/10/17 13:12:38;;;;;;;;;10.50;9.50;;;;;;;;5036420;28;47596;-76
2021/10/17 13:15:04;;;;;;;;;6.50;5.25;;;;;;;;5038293;28;45539;-75
2021/10/17 13:17:30;;;;;;;;;10.75;9.00;;;;;;;;5037019;28;45391;-75
2021/10/17 13:19:57;;;;;;;;;10.75;9.75;;;;;;;;5039119;28;45303;-77
2021/10/17 13:22:22;;;;;;;;;7.50;7.00;;;;;;;;5037796;28;45555;-71
2021/10/17 13:24:47;;;;;;;;;7.25;6.00;;;;;;;;5037458;28;45216;-65
2021/10/17 13:27:13;;;;;;;;;6.25;5.25;;;;;;;;5038024;28;45324;-69
2021/10/17 13:29:39;;;;;;;;;7.00;4.00;;;;;;;;5038061;28;45162;-67
2021/10/17 13:32:05;;;;;;;;;8.00;7.25;;;;;;;;5037337;28;45402;-68
2021/10/17 13:34:30;;;;;;;;;7.00;6.50;;;;;;;;5037671;28;45438;-68
2021/10/17 13:36:55;;;;;;;;;14.75;14.00;;;;;;;;5036186;28;45440;-67
2021/10/17 13:39:20;;;;;;;;;8.25;7.25;;;;;;;;5037695;28;45314;-70
2021/10/17 13:41:46;;;;;;;;;5.75;4.75;;;;;;;;5037099;28;45802;-66
2021/10/17 13:44:11;;;;;;;;;5.25;5.25;;;;;;;;5037640;28;45541;-73
2021/10/17 13:46:37;;;;;;;;;10.75;7.25;;;;;;;;5037707;28;45262;-68
2021/10/17 13:49:03;;;;;;;;;6.25;6.25;;;;;;;;5037355;28;45466;-71
2021/10/17 13:51:29;;;;;;;;;6.25;6.00;;;;;;;;5036760;28;47595;-69
2021/10/17 13:53:54;;;;;;;;;7.00;6.00;;;;;;;;5037053;28;45321;-69
2021/10/17 13:56:19;;;;;;;;;6.00;5.00;;;;;;;;5037109;28;45384;-73
2021/10/17 13:58:45;;;;;;;;;7.00;7.00;;;;;;;;5037472;28;45391;-78
2021/10/17 14:01:10;;;;;;;;;11.75;11.75;;;;;;;;5038072;28;45464;-71
2021/10/17 14:03:36;;;;;;;;;6.75;6.00;;;;;;;;5037234;28;45347;-72
2021/10/17 14:06:01;;;;;;;;;5.50;5.00;;;;;;;;5037865;28;45593;-74
2021/10/17 14:08:27;;;;;;;;;7.00;6.75;;;;;;;;5036105;28;45409;-77
2021/10/17 14:10:54;;;;;;;;;8.00;6.75;;;;;;;;5035965;28;47034;-79
2021/10/17 14:13:20;;;;;;;;;10.50;7.00;;;;;;;;5037694;28;45262;-75
2021/10/17 14:15:45;;;;;;;;;6.25;6.00;;;;;;;;5036612;28;45438;-77